AirNav   Everest Fuels
 
 544 users online  

86NC Craft Airport
Hertford, North Carolina, USA

GOING TO HERTFORD?


FAA INFORMATION EFFECTIVE 03 NOVEMBER 2022

Location

FAA Identifier: 86NC
Lat/Long: 36-15-45.0600N 076-29-29.1900W
36-15.751000N 076-29.486500W
36.2625167,-76.4914417
(estimated)
Elevation: 14 ft. / 4 m (estimated)
Variation: 10W (2000)
From city: 5 miles N of HERTFORD, NC
Time zone: UTC -5 (UTC -4 during Daylight Saving Time)
Zip code: 27944

Airport Operations

Airport use: Private use. Permission required prior to landing
Activation date: 07/2002
Control tower: no
ARTCC: WASHINGTON CENTER
FSS: RALEIGH FLIGHT SERVICE STATION
Attendance: UNATNDD
Wind indicator: yes
Segmented circle: no

Airport Communications

WX AWOS-3 at EDE (15 nm S): 118.275 (252-482-0757)
WX ASOS at ECG (15 nm E): 124.375 (252-338-4750)

Nearby radio navigation aids

VOR radial/distance  VOR name  Freq  Var
ECGr278/15.3ELIZABETH CITY VOR/DME112.5007W
CVIr119/19.5COFIELD VORTAC114.6009W
FKNr146/37.0FRANKLIN VORTAC110.6009W

 
NDB name  Hdg/Dist  Freq  Var  ID
WOODVILLE280/9.425410WLLW .-.. .-.. .--

Airport Services

Runway Information

Runway 4L/22R

Dimensions: 2600 x 24 ft. / 792 x 7 m
Surface: concrete
RUNWAY 4L  RUNWAY 22R
Traffic pattern: leftleft
Displaced threshold: no825 ft.
Obstructions: none50 ft. pline, 175 ft. from runway

Runway 4R/22L

Dimensions: 2900 x 100 ft. / 884 x 30 m
Surface: turf
RUNWAY 4R  RUNWAY 22L
Traffic pattern: leftleft
Displaced threshold: no825 ft.
Obstructions: none50 ft. pline, 175 ft. from runway

Airport Ownership and Management from official FAA records

Ownership: Privately-owned
Owner: CRAIG D CRAFT
865 SWAMP RD
HERTFORD, NC 27944
Phone 252-426-9676
Manager: CRAIG D CRAFT
865 SWAMP RD
HERTFORD, NC 27944
Phone 252-426-9676

Airport Operational Statistics

Aircraft based on the field: 2
Single engine airplanes: 2
    

Additional Remarks

INTENSIVE AGRICULTURE OPNS INVOF ARPT.
OWNER DESIRES CHARTING.
FOR CD CTC NORFOLK APCH AT 757-464-0757.

Instrument Procedures

There are no published instrument procedures at 86NC.

Some nearby airports with instrument procedures:

KEDE - Northeastern Regional Airport (15 nm S)
KECG - Elizabeth City Coast Guard Air Station/Regional Airport (15 nm E)
KONX - Currituck County Regional Airport (24 nm E)
KCPK - Chesapeake Regional Airport (26 nm N)
KSFQ - Suffolk Executive Airport (26 nm N)
 
Loc | Ops | Rwys | IFR | FBO | Links
Com | Nav | Svcs | Stats | Notes
Area around 86NC (Craft Airport)
 
Road maps at: MapQuest Bing Google
 
Aerial photo
WARNING: Photo may not be current or correct
Aerial photo of 86NC (Craft Airport)
Do you have a better or more recent aerial photo of Craft Airport that you would like to share? If so, please send us your photo.

 
Sectional chart

 
Airport distance calculator
Flying to Craft Airport? Find the distance to fly.

From to 86NC

Sunrise and sunset
Times for 28-Nov-2022
 Local
(UTC-5)
 Zulu
(UTC)
Morning civil twilight06:2911:29
Sunrise06:5711:57
Sunset16:5121:51
Evening civil twilight17:1922:19

Current date and time
Zulu (UTC)  28-Nov-2022 11:11:45
Local (UTC-5)  28-Nov-2022 06:11:45
 
METAR
KECG 
15nm E 
281054Z AUTO 22008KT 10SM CLR 12/08 A2973 RMK AO2 SLP067 T01170078
KEDE 
15nm S 
281055Z AUTO 24007KT 10SM CLR 15/11 A2975 RMK AO2 T01450112
KONX 
24nm E 
281055Z AUTO 22006KT 10SM CLR 12/07 A2972 RMK AO2 T01230065
KCPK 
26nm N 
281055Z AUTO 22005KT 10SM CLR 12/07 A2971 RMK AO2 T01150074
KSFQ 
26nm N 
281055Z AUTO 23005KT 10SM CLR 12/09 A2972 RMK AO2 T01240086
TAF
KECG 
15nm E 
280520Z 2806/2906 23010KT P6SM SKC FM281300 27010KT P6SM SCT060 FM281600 29012G20KT P6SM BKN050
NOTAMs
Click for the latest NOTAMs
NOTAMs are issued by the DoD/FAA and will open in a separate window not controlled by AirNav.

 

 
 

Would you like to see your business listed on this page?

 If your business provides an interesting product or service to pilots, flight crews, aircraft, or users of the Craft Airport, you should consider listing it here.  To start the listing process, click on the button below
 
Add a business
 

Other Pages about Craft Airport

Update a link
 
Copyright © AirNav, LLC. All rights reserved. Privacy Policy  Contact